sensor_id;sensor_type;location;lat;lon;timestamp;temperature;humidity
70695;DHT22;58269;52.246;21.104;2022-12-24T00:00:13;12.09;63.20
70695;DHT22;58269;52.246;21.104;2022-12-24T00:02:17;12.07;63.10
70695;DHT22;58269;52.246;21.104;2022-12-24T00:04:18;12.00;63.18
70695;DHT22;58269;52.246;21.104;2022-12-24T00:06:22;11.95;63.39
70695;DHT22;58269;52.246;21.104;2022-12-24T00:08:23;11.95;63.42
70695;DHT22;58269;52.246;21.104;2022-12-24T00:10:25;11.96;63.48
70695;DHT22;58269;52.246;21.104;2022-12-24T00:12:26;11.97;63.47
70695;DHT22;58269;52.246;21.104;2022-12-24T00:14:27;11.99;63.49
70695;DHT22;58269;52.246;21.104;2022-12-24T00:16:29;11.97;63.50
70695;DHT22;58269;52.246;21.104;2022-12-24T00:18:30;11.96;63.51
70695;DHT22;58269;52.246;21.104;2022-12-24T00:20:31;11.96;63.51
70695;DHT22;58269;52.246;21.104;2022-12-24T00:22:32;11.97;63.49
70695;DHT22;58269;52.246;21.104;2022-12-24T00:24:34;12.00;63.47
70695;DHT22;58269;52.246;21.104;2022-12-24T00:26:35;11.99;63.45
70695;DHT22;58269;52.246;21.104;2022-12-24T00:28:36;12.03;63.44
70695;DHT22;58269;52.246;21.104;2022-12-24T00:30:38;12.05;63.38
70695;DHT22;58269;52.246;21.104;2022-12-24T00:32:40;12.06;63.35
70695;DHT22;58269;52.246;21.104;2022-12-24T00:34:41;12.05;63.31
70695;DHT22;58269;52.246;21.104;2022-12-24T00:36:43;12.06;63.30
70695;DHT22;58269;52.246;21.104;2022-12-24T00:38:44;12.06;63.24
70695;DHT22;58269;52.246;21.104;2022-12-24T00:40:46;12.06;63.21
70695;DHT22;58269;52.246;21.104;2022-12-24T00:42:47;12.03;63.16
70695;DHT22;58269;52.246;21.104;2022-12-24T00:44:48;12.00;63.18
70695;DHT22;58269;52.246;21.104;2022-12-24T00:46:50;12.00;63.15
70695;DHT22;58269;52.246;21.104;2022-12-24T00:48:51;11.99;63.17
70695;DHT22;58269;52.246;21.104;2022-12-24T00:50:53;11.96;63.18
70695;DHT22;58269;52.246;21.104;2022-12-24T00:52:54;11.95;63.15
70695;DHT22;58269;52.246;21.104;2022-12-24T00:54:55;11.92;63.16
70695;DHT22;58269;52.246;21.104;2022-12-24T00:56:57;11.90;63.19
70695;DHT22;58269;52.246;21.104;2022-12-24T00:58:58;11.88;63.20
70695;DHT22;58269;52.246;21.104;2022-12-24T01:01:00;11.84;63.27
70695;DHT22;58269;52.246;21.104;2022-12-24T01:03:01;11.81;63.37
70695;DHT22;58269;52.246;21.104;2022-12-24T01:05:03;11.82;63.40
70695;DHT22;58269;52.246;21.104;2022-12-24T01:07:11;11.82;63.37
70695;DHT22;58269;52.246;21.104;2022-12-24T01:09:12;11.81;63.32
70695;DHT22;58269;52.246;21.104;2022-12-24T01:11:14;11.85;63.35
70695;DHT22;58269;52.246;21.104;2022-12-24T01:13:15;11.82;63.33
70695;DHT22;58269;52.246;21.104;2022-12-24T01:15:16;11.84;63.34
70695;DHT22;58269;52.246;21.104;2022-12-24T01:17:18;11.82;63.32
70695;DHT22;58269;52.246;21.104;2022-12-24T01:19:19;11.81;63.31
70695;DHT22;58269;52.246;21.104;2022-12-24T01:21:20;11.78;63.30
70695;DHT22;58269;52.246;21.104;2022-12-24T01:23:22;11.79;63.34
70695;DHT22;58269;52.246;21.104;2022-12-24T01:25:23;11.78;63.33
70695;DHT22;58269;52.246;21.104;2022-12-24T01:27:25;11.76;63.34
70695;DHT22;58269;52.246;21.104;2022-12-24T01:29:26;11.78;63.32
70695;DHT22;58269;52.246;21.104;2022-12-24T01:31:27;11.78;63.28
70695;DHT22;58269;52.246;21.104;2022-12-24T01:33:29;11.81;63.25
70695;DHT22;58269;52.246;21.104;2022-12-24T01:35:30;11.76;63.20
70695;DHT22;58269;52.246;21.104;2022-12-24T01:37:31;11.78;63.21
70695;DHT22;58269;52.246;21.104;2022-12-24T01:39:33;11.79;63.22
70695;DHT22;58269;52.246;21.104;2022-12-24T01:41:34;11.78;63.16
70695;DHT22;58269;52.246;21.104;2022-12-24T01:43:54;11.78;63.13
70695;DHT22;58269;52.246;21.104;2022-12-24T01:45:57;11.79;63.13
70695;DHT22;58269;52.246;21.104;2022-12-24T01:47:59;11.78;63.10
70695;DHT22;58269;52.246;21.104;2022-12-24T01:50:02;11.79;63.10
70695;DHT22;58269;52.246;21.104;2022-12-24T01:52:10;11.78;63.13
70695;DHT22;58269;52.246;21.104;2022-12-24T01:54:12;11.79;63.13
70695;DHT22;58269;52.246;21.104;2022-12-24T01:56:13;11.76;63.12
70695;DHT22;58269;52.246;21.104;2022-12-24T01:58:15;11.78;63.13
70695;DHT22;58269;52.246;21.104;2022-12-24T02:00:19;11.79;63.15
70695;DHT22;58269;52.246;21.104;2022-12-24T02:02:20;11.84;63.13
70695;DHT22;58269;52.246;21.104;2022-12-24T02:04:40;11.82;63.02
70695;DHT22;58269;52.246;21.104;2022-12-24T02:06:42;11.82;63.03
70695;DHT22;58269;52.246;21.104;2022-12-24T02:08:43;11.81;63.01
70695;DHT22;58269;52.246;21.104;2022-12-24T02:10:45;11.82;63.00
70695;DHT22;58269;52.246;21.104;2022-12-24T02:12:47;11.85;62.95
70695;DHT22;58269;52.246;21.104;2022-12-24T02:14:49;11.82;62.93
70695;DHT22;58269;52.246;21.104;2022-12-24T02:17:00;11.82;62.87
70695;DHT22;58269;52.246;21.104;2022-12-24T02:21:50;11.74;62.89
70695;DHT22;58269;52.246;21.104;2022-12-24T02:28:48;11.68;62.95
70695;DHT22;58269;52.246;21.104;2022-12-24T02:30:53;11.69;62.96
70695;DHT22;58269;52.246;21.104;2022-12-24T02:32:59;11.68;62.96
70695;DHT22;58269;52.246;21.104;2022-12-24T02:35:13;11.68;62.94
70695;DHT22;58269;52.246;21.104;2022-12-24T02:37:23;11.69;62.97
70695;DHT22;58269;52.246;21.104;2022-12-24T02:41:51;11.71;62.96
70695;DHT22;58269;52.246;21.104;2022-12-24T02:44:05;11.72;62.96
70695;DHT22;58269;52.246;21.104;2022-12-24T02:46:12;11.74;62.98
70695;DHT22;58269;52.246;21.104;2022-12-24T02:48:11;11.74;62.95
70695;DHT22;58269;52.246;21.104;2022-12-24T02:50:16;11.75;62.93
70695;DHT22;58269;52.246;21.104;2022-12-24T02:52:38;11.75;62.93
70695;DHT22;58269;52.246;21.104;2022-12-24T02:54:41;11.76;62.87
70695;DHT22;58269;52.246;21.104;2022-12-24T03:04:07;11.74;62.79
70695;DHT22;58269;52.246;21.104;2022-12-24T03:06:13;11.72;62.84
70695;DHT22;58269;52.246;21.104;2022-12-24T03:10:57;11.69;62.76
70695;DHT22;58269;52.246;21.104;2022-12-24T03:13:02;11.72;62.77
70695;DHT22;58269;52.246;21.104;2022-12-24T03:15:07;11.69;62.70
70695;DHT22;58269;52.246;21.104;2022-12-24T03:17:09;11.66;62.72
70695;DHT22;58269;52.246;21.104;2022-12-24T03:19:10;11.66;62.76
70695;DHT22;58269;52.246;21.104;2022-12-24T03:21:33;11.65;62.77
70695;DHT22;58269;52.246;21.104;2022-12-24T03:23:35;11.68;62.83
70695;DHT22;58269;52.246;21.104;2022-12-24T03:25:38;11.68;62.79
70695;DHT22;58269;52.246;21.104;2022-12-24T03:27:40;11.65;62.79
70695;DHT22;58269;52.246;21.104;2022-12-24T03:29:42;11.66;62.77
70695;DHT22;58269;52.246;21.104;2022-12-24T03:31:47;11.65;62.80
70695;DHT22;58269;52.246;21.104;2022-12-24T03:33:49;11.64;62.76
70695;DHT22;58269;52.246;21.104;2022-12-24T03:35:50;11.65;62.78
70695;DHT22;58269;52.246;21.104;2022-12-24T03:37:51;11.65;62.80
70695;DHT22;58269;52.246;21.104;2022-12-24T03:39:53;11.66;62.81
70695;DHT22;58269;52.246;21.104;2022-12-24T03:41:54;11.64;62.79
70695;DHT22;58269;52.246;21.104;2022-12-24T03:43:55;11.65;62.78
70695;DHT22;58269;52.246;21.104;2022-12-24T03:45:57;11.66;62.79
70695;DHT22;58269;52.246;21.104;2022-12-24T03:47:58;11.64;62.79
70695;DHT22;58269;52.246;21.104;2022-12-24T03:50:00;11.62;62.80
70695;DHT22;58269;52.246;21.104;2022-12-24T03:52:01;11.64;62.84
70695;DHT22;58269;52.246;21.104;2022-12-24T03:54:02;11.64;62.85
70695;DHT22;58269;52.246;21.104;2022-12-24T03:56:04;11.62;62.84
70695;DHT22;58269;52.246;21.104;2022-12-24T03:58:05;11.62;62.84
70695;DHT22;58269;52.246;21.104;2022-12-24T04:00:08;11.64;62.95
70695;DHT22;58269;52.246;21.104;2022-12-24T04:02:15;11.65;62.92
70695;DHT22;58269;52.246;21.104;2022-12-24T04:04:16;11.66;62.93
70695;DHT22;58269;52.246;21.104;2022-12-24T04:06:18;11.66;62.94
70695;DHT22;58269;52.246;21.104;2022-12-24T04:08:19;11.68;62.89
70695;DHT22;58269;52.246;21.104;2022-12-24T04:10:20;11.66;62.81
70695;DHT22;58269;52.246;21.104;2022-12-24T04:12:21;11.68;62.80
70695;DHT22;58269;52.246;21.104;2022-12-24T04:14:23;11.68;62.85
70695;DHT22;58269;52.246;21.104;2022-12-24T04:16:24;11.68;62.85
70695;DHT22;58269;52.246;21.104;2022-12-24T04:18:26;11.72;62.84
70695;DHT22;58269;52.246;21.104;2022-12-24T04:20:28;11.69;62.80
70695;DHT22;58269;52.246;21.104;2022-12-24T04:22:29;11.72;62.81
70695;DHT22;58269;52.246;21.104;2022-12-24T04:24:30;11.69;62.76
70695;DHT22;58269;52.246;21.104;2022-12-24T04:26:32;11.71;62.69
70695;DHT22;58269;52.246;21.104;2022-12-24T04:28:33;11.69;62.63
70695;DHT22;58269;52.246;21.104;2022-12-24T04:30:37;11.66;62.64
70695;DHT22;58269;52.246;21.104;2022-12-24T04:32:38;11.66;62.65
70695;DHT22;58269;52.246;21.104;2022-12-24T04:34:40;11.65;62.63
70695;DHT22;58269;52.246;21.104;2022-12-24T04:36:41;11.62;62.62
70695;DHT22;58269;52.246;21.104;2022-12-24T04:38:43;11.64;62.66
70695;DHT22;58269;52.246;21.104;2022-12-24T04:40:44;11.64;62.70
70695;DHT22;58269;52.246;21.104;2022-12-24T04:42:45;11.59;62.69
70695;DHT22;58269;52.246;21.104;2022-12-24T04:44:47;11.58;62.69
70695;DHT22;58269;52.246;21.104;2022-12-24T04:46:48;11.61;62.75
70695;DHT22;58269;52.246;21.104;2022-12-24T04:48:51;11.61;62.79
70695;DHT22;58269;52.246;21.104;2022-12-24T04:50:52;11.55;62.81
70695;DHT22;58269;52.246;21.104;2022-12-24T04:52:54;11.55;62.82
70695;DHT22;58269;52.246;21.104;2022-12-24T04:54:55;11.54;62.83
70695;DHT22;58269;52.246;21.104;2022-12-24T04:56:57;11.53;62.85
70695;DHT22;58269;52.246;21.104;2022-12-24T04:58:59;11.48;62.84
70695;DHT22;58269;52.246;21.104;2022-12-24T05:01:05;11.50;62.90
70695;DHT22;58269;52.246;21.104;2022-12-24T05:03:07;11.51;62.90
70695;DHT22;58269;52.246;21.104;2022-12-24T05:05:09;11.51;62.91
70695;DHT22;58269;52.246;21.104;2022-12-24T05:07:10;11.50;62.94
70695;DHT22;58269;52.246;21.104;2022-12-24T05:09:11;11.50;62.91
70695;DHT22;58269;52.246;21.104;2022-12-24T05:11:13;11.48;62.90
70695;DHT22;58269;52.246;21.104;2022-12-24T05:13:15;11.51;62.91
70695;DHT22;58269;52.246;21.104;2022-12-24T05:15:16;11.48;62.90
70695;DHT22;58269;52.246;21.104;2022-12-24T05:17:17;11.47;62.93
70695;DHT22;58269;52.246;21.104;2022-12-24T05:19:18;11.48;62.96
70695;DHT22;58269;52.246;21.104;2022-12-24T05:21:21;11.47;62.92
70695;DHT22;58269;52.246;21.104;2022-12-24T05:23:23;11.47;62.91
70695;DHT22;58269;52.246;21.104;2022-12-24T05:25:44;11.44;62.90
70695;DHT22;58269;52.246;21.104;2022-12-24T05:28:04;11.47;62.92
70695;DHT22;58269;52.246;21.104;2022-12-24T05:30:07;11.45;62.91
70695;DHT22;58269;52.246;21.104;2022-12-24T05:32:08;11.43;62.86
70695;DHT22;58269;52.246;21.104;2022-12-24T05:34:11;11.43;62.88
70695;DHT22;58269;52.246;21.104;2022-12-24T05:36:13;11.44;62.95
70695;DHT22;58269;52.246;21.104;2022-12-24T05:38:15;11.41;62.92
70695;DHT22;58269;52.246;21.104;2022-12-24T05:40:16;11.40;62.92
70695;DHT22;58269;52.246;21.104;2022-12-24T05:42:18;11.40;62.98
70695;DHT22;58269;52.246;21.104;2022-12-24T05:44:19;11.40;62.97
70695;DHT22;58269;52.246;21.104;2022-12-24T05:46:21;11.41;62.96
70695;DHT22;58269;52.246;21.104;2022-12-24T05:48:23;11.40;62.93
70695;DHT22;58269;52.246;21.104;2022-12-24T05:50:24;11.40;62.96
70695;DHT22;58269;52.246;21.104;2022-12-24T05:52:27;11.37;62.98
70695;DHT22;58269;52.246;21.104;2022-12-24T05:54:29;11.40;63.01
70695;DHT22;58269;52.246;21.104;2022-12-24T05:56:30;11.40;62.96
70695;DHT22;58269;52.246;21.104;2022-12-24T05:58:32;11.40;62.94
70695;DHT22;58269;52.246;21.104;2022-12-24T06:00:33;11.35;62.96
70695;DHT22;58269;52.246;21.104;2022-12-24T06:02:34;11.37;62.96
70695;DHT22;58269;52.246;21.104;2022-12-24T06:04:35;11.31;62.99
70695;DHT22;58269;52.246;21.104;2022-12-24T06:06:37;11.34;63.02
70695;DHT22;58269;52.246;21.104;2022-12-24T06:08:39;11.34;63.03
70695;DHT22;58269;52.246;21.104;2022-12-24T06:10:40;11.31;63.01
70695;DHT22;58269;52.246;21.104;2022-12-24T06:12:42;11.31;63.03
70695;DHT22;58269;52.246;21.104;2022-12-24T06:14:43;11.33;63.05
70695;DHT22;58269;52.246;21.104;2022-12-24T06:16:45;11.34;63.04
70695;DHT22;58269;52.246;21.104;2022-12-24T06:18:46;11.28;63.05
70695;DHT22;58269;52.246;21.104;2022-12-24T06:20:52;11.33;63.11
70695;DHT22;58269;52.246;21.104;2022-12-24T06:22:54;11.31;63.10
70695;DHT22;58269;52.246;21.104;2022-12-24T06:24:55;11.28;63.11
70695;DHT22;58269;52.246;21.104;2022-12-24T06:26:57;11.28;63.13
70695;DHT22;58269;52.246;21.104;2022-12-24T06:28:58;11.28;63.13
70695;DHT22;58269;52.246;21.104;2022-12-24T06:31:00;11.25;63.17
70695;DHT22;58269;52.246;21.104;2022-12-24T06:33:02;11.25;63.15
70695;DHT22;58269;52.246;21.104;2022-12-24T06:35:03;11.25;63.18
70695;DHT22;58269;52.246;21.104;2022-12-24T06:37:05;11.28;63.18
70695;DHT22;58269;52.246;21.104;2022-12-24T06:39:06;11.27;63.20
70695;DHT22;58269;52.246;21.104;2022-12-24T06:41:08;11.28;63.18
70695;DHT22;58269;52.246;21.104;2022-12-24T06:43:09;11.27;63.18
70695;DHT22;58269;52.246;21.104;2022-12-24T06:45:12;11.28;63.13
70695;DHT22;58269;52.246;21.104;2022-12-24T06:47:13;11.25;63.18
70695;DHT22;58269;52.246;21.104;2022-12-24T06:49:14;11.27;63.22
70695;DHT22;58269;52.246;21.104;2022-12-24T06:51:17;11.24;63.22
70695;DHT22;58269;52.246;21.104;2022-12-24T06:53:19;11.24;63.24
70695;DHT22;58269;52.246;21.104;2022-12-24T06:55:20;11.24;63.24
70695;DHT22;58269;52.246;21.104;2022-12-24T06:57:22;11.24;63.24
70695;DHT22;58269;52.246;21.104;2022-12-24T06:59:23;11.25;63.20
70695;DHT22;58269;52.246;21.104;2022-12-24T07:01:24;11.27;63.24
70695;DHT22;58269;52.246;21.104;2022-12-24T07:03:25;11.25;63.26
70695;DHT22;58269;52.246;21.104;2022-12-24T07:05:27;11.24;63.21
70695;DHT22;58269;52.246;21.104;2022-12-24T07:07:29;11.24;63.26
70695;DHT22;58269;52.246;21.104;2022-12-24T07:09:30;11.24;63.27
70695;DHT22;58269;52.246;21.104;2022-12-24T07:11:31;11.24;63.29
70695;DHT22;58269;52.246;21.104;2022-12-24T07:13:33;11.25;63.36
70695;DHT22;58269;52.246;21.104;2022-12-24T07:15:34;11.23;63.32
70695;DHT22;58269;52.246;21.104;2022-12-24T07:17:35;11.21;63.34
70695;DHT22;58269;52.246;21.104;2022-12-24T07:19:37;11.21;63.37
70695;DHT22;58269;52.246;21.104;2022-12-24T07:21:38;11.24;63.37
70695;DHT22;58269;52.246;21.104;2022-12-24T07:23:39;11.24;63.37
70695;DHT22;58269;52.246;21.104;2022-12-24T07:25:41;11.25;63.35
70695;DHT22;58269;52.246;21.104;2022-12-24T07:27:43;11.27;63.34
70695;DHT22;58269;52.246;21.104;2022-12-24T07:29:44;11.27;63.32
70695;DHT22;58269;52.246;21.104;2022-12-24T07:31:45;11.24;63.27
70695;DHT22;58269;52.246;21.104;2022-12-24T07:33:47;11.27;63.33
70695;DHT22;58269;52.246;21.104;2022-12-24T07:35:48;11.27;63.33
70695;DHT22;58269;52.246;21.104;2022-12-24T07:37:49;11.27;63.36
70695;DHT22;58269;52.246;21.104;2022-12-24T07:39:50;11.28;63.34
70695;DHT22;58269;52.246;21.104;2022-12-24T07:41:52;11.28;63.32
70695;DHT22;58269;52.246;21.104;2022-12-24T07:43:53;11.28;63.29
70695;DHT22;58269;52.246;21.104;2022-12-24T07:45:55;11.31;63.35
70695;DHT22;58269;52.246;21.104;2022-12-24T07:47:57;11.31;63.35
70695;DHT22;58269;52.246;21.104;2022-12-24T07:49:58;11.33;63.31
70695;DHT22;58269;52.246;21.104;2022-12-24T07:51:59;11.35;63.32
70695;DHT22;58269;52.246;21.104;2022-12-24T07:54:01;11.34;63.29
70695;DHT22;58269;52.246;21.104;2022-12-24T07:56:04;11.34;63.32
70695;DHT22;58269;52.246;21.104;2022-12-24T07:58:06;11.40;63.39
70695;DHT22;58269;52.246;21.104;2022-12-24T08:00:08;11.40;63.26
70695;DHT22;58269;52.246;21.104;2022-12-24T08:02:11;11.41;63.22
70695;DHT22;58269;52.246;21.104;2022-12-24T08:04:13;11.41;63.23
70695;DHT22;58269;52.246;21.104;2022-12-24T08:06:14;11.43;63.19
70695;DHT22;58269;52.246;21.104;2022-12-24T08:08:15;11.44;63.18
70695;DHT22;58269;52.246;21.104;2022-12-24T08:10:17;11.47;63.18
70695;DHT22;58269;52.246;21.104;2022-12-24T08:12:18;11.45;63.16
70695;DHT22;58269;52.246;21.104;2022-12-24T08:14:20;11.45;63.05
70695;DHT22;58269;52.246;21.104;2022-12-24T08:16:21;11.44;63.03
70695;DHT22;58269;52.246;21.104;2022-12-24T08:18:22;11.45;63.06
70695;DHT22;58269;52.246;21.104;2022-12-24T08:20:24;11.44;63.07
70695;DHT22;58269;52.246;21.104;2022-12-24T08:22:25;11.43;63.06
70695;DHT22;58269;52.246;21.104;2022-12-24T08:24:27;11.44;63.07
70695;DHT22;58269;52.246;21.104;2022-12-24T08:26:28;11.44;63.08
70695;DHT22;58269;52.246;21.104;2022-12-24T08:28:29;11.40;63.06
70695;DHT22;58269;52.246;21.104;2022-12-24T08:30:31;11.43;63.05
70695;DHT22;58269;52.246;21.104;2022-12-24T08:32:32;11.43;63.05
70695;DHT22;58269;52.246;21.104;2022-12-24T08:34:33;11.43;63.06
70695;DHT22;58269;52.246;21.104;2022-12-24T08:36:35;11.45;63.05
70695;DHT22;58269;52.246;21.104;2022-12-24T08:38:36;11.45;63.05
70695;DHT22;58269;52.246;21.104;2022-12-24T08:40:37;11.43;63.02
70695;DHT22;58269;52.246;21.104;2022-12-24T08:42:38;11.40;63.05
70695;DHT22;58269;52.246;21.104;2022-12-24T08:44:40;11.41;63.11
70695;DHT22;58269;52.246;21.104;2022-12-24T08:46:41;11.43;63.09
70695;DHT22;58269;52.246;21.104;2022-12-24T08:48:42;11.45;63.11
70695;DHT22;58269;52.246;21.104;2022-12-24T08:50:43;11.47;63.10
70695;DHT22;58269;52.246;21.104;2022-12-24T08:52:45;11.48;63.10
70695;DHT22;58269;52.246;21.104;2022-12-24T08:54:46;11.51;63.10
70695;DHT22;58269;52.246;21.104;2022-12-24T08:56:47;11.53;63.08
70695;DHT22;58269;52.246;21.104;2022-12-24T08:58:49;11.54;63.08
70695;DHT22;58269;52.246;21.104;2022-12-24T09:00:50;11.54;63.03
70695;DHT22;58269;52.246;21.104;2022-12-24T09:02:52;11.55;63.04
70695;DHT22;58269;52.246;21.104;2022-12-24T09:04:53;11.55;63.01
70695;DHT22;58269;52.246;21.104;2022-12-24T09:06:54;11.58;62.99
70695;DHT22;58269;52.246;21.104;2022-12-24T09:08:56;11.54;62.97
70695;DHT22;58269;52.246;21.104;2022-12-24T09:11:14;11.54;62.95
70695;DHT22;58269;52.246;21.104;2022-12-24T09:13:11;11.54;62.98
70695;DHT22;58269;52.246;21.104;2022-12-24T09:15:13;11.55;63.01
70695;DHT22;58269;52.246;21.104;2022-12-24T09:17:14;11.55;62.98
70695;DHT22;58269;52.246;21.104;2022-12-24T09:19:15;11.57;63.03
70695;DHT22;58269;52.246;21.104;2022-12-24T09:21:17;11.57;63.05
70695;DHT22;58269;52.246;21.104;2022-12-24T09:23:18;11.58;63.05
70695;DHT22;58269;52.246;21.104;2022-12-24T09:25:19;11.59;63.08
70695;DHT22;58269;52.246;21.104;2022-12-24T09:27:21;11.62;62.98
70695;DHT22;58269;52.246;21.104;2022-12-24T09:29:22;11.57;62.82
70695;DHT22;58269;52.246;21.104;2022-12-24T09:31:23;11.57;62.96
70695;DHT22;58269;52.246;21.104;2022-12-24T09:33:27;11.61;63.13
70695;DHT22;58269;52.246;21.104;2022-12-24T09:35:29;11.61;63.13
70695;DHT22;58269;52.246;21.104;2022-12-24T09:37:30;11.62;63.10
70695;DHT22;58269;52.246;21.104;2022-12-24T09:39:32;11.61;63.13
70695;DHT22;58269;52.246;21.104;2022-12-24T09:41:47;11.62;63.14
70695;DHT22;58269;52.246;21.104;2022-12-24T09:43:51;11.66;63.11
70695;DHT22;58269;52.246;21.104;2022-12-24T09:46:11;11.68;63.09
70695;DHT22;58269;52.246;21.104;2022-12-24T09:48:20;11.69;63.12
70695;DHT22;58269;52.246;21.104;2022-12-24T09:50:35;11.71;63.11
70695;DHT22;58269;52.246;21.104;2022-12-24T09:52:37;11.72;63.08
70695;DHT22;58269;52.246;21.104;2022-12-24T09:54:48;11.76;63.08
70695;DHT22;58269;52.246;21.104;2022-12-24T09:56:47;11.76;63.06
70695;DHT22;58269;52.246;21.104;2022-12-24T09:58:52;11.78;63.02
70695;DHT22;58269;52.246;21.104;2022-12-24T10:00:53;11.79;62.98
70695;DHT22;58269;52.246;21.104;2022-12-24T10:02:56;11.76;62.96
70695;DHT22;58269;52.246;21.104;2022-12-24T10:04:57;11.81;62.91
70695;DHT22;58269;52.246;21.104;2022-12-24T10:16:22;11.90;62.89
70695;DHT22;58269;52.246;21.104;2022-12-24T10:20:57;11.95;62.83
70695;DHT22;58269;52.246;21.104;2022-12-24T10:27:25;11.97;62.84
70695;DHT22;58269;52.246;21.104;2022-12-24T10:29:33;11.96;62.82
70695;DHT22;58269;52.246;21.104;2022-12-24T10:31:38;11.99;62.80
70695;DHT22;58269;52.246;21.104;2022-12-24T10:33:44;11.99;62.78
70695;DHT22;58269;52.246;21.104;2022-12-24T10:35:53;11.99;62.77
70695;DHT22;58269;52.246;21.104;2022-12-24T10:37:50;12.00;62.75
70695;DHT22;58269;52.246;21.104;2022-12-24T10:39:52;12.05;62.74
70695;DHT22;58269;52.246;21.104;2022-12-24T10:41:55;12.05;62.68
70695;DHT22;58269;52.246;21.104;2022-12-24T10:43:58;12.05;62.72
70695;DHT22;58269;52.246;21.104;2022-12-24T10:46:01;12.02;62.71
70695;DHT22;58269;52.246;21.104;2022-12-24T10:48:04;12.02;62.75
70695;DHT22;58269;52.246;21.104;2022-12-24T10:50:20;12.02;62.72
70695;DHT22;58269;52.246;21.104;2022-12-24T10:52:26;12.05;62.72
70695;DHT22;58269;52.246;21.104;2022-12-24T10:54:26;12.05;62.67
70695;DHT22;58269;52.246;21.104;2022-12-24T10:56:27;12.05;62.71
70695;DHT22;58269;52.246;21.104;2022-12-24T10:58:28;12.03;62.70
70695;DHT22;58269;52.246;21.104;2022-12-24T11:00:31;12.00;62.69
70695;DHT22;58269;52.246;21.104;2022-12-24T11:02:37;12.03;62.67
70695;DHT22;58269;52.246;21.104;2022-12-24T11:04:50;12.00;62.72
70695;DHT22;58269;52.246;21.104;2022-12-24T11:07:01;12.02;62.74
70695;DHT22;58269;52.246;21.104;2022-12-24T11:09:21;12.03;62.71
70695;DHT22;58269;52.246;21.104;2022-12-24T11:11:20;12.03;62.66
70695;DHT22;58269;52.246;21.104;2022-12-24T11:13:33;12.03;62.74
70695;DHT22;58269;52.246;21.104;2022-12-24T11:15:35;11.99;62.67
70695;DHT22;58269;52.246;21.104;2022-12-24T11:17:36;12.00;62.67
70695;DHT22;58269;52.246;21.104;2022-12-24T11:19:38;11.97;62.67
70695;DHT22;58269;52.246;21.104;2022-12-24T11:21:42;11.96;62.70
70695;DHT22;58269;52.246;21.104;2022-12-24T11:26:04;11.96;62.70
70695;DHT22;58269;52.246;21.104;2022-12-24T11:28:23;11.96;62.72
70695;DHT22;58269;52.246;21.104;2022-12-24T11:30:19;11.95;62.76
70695;DHT22;58269;52.246;21.104;2022-12-24T11:32:21;11.93;62.73
70695;DHT22;58269;52.246;21.104;2022-12-24T11:34:30;11.93;62.71
70695;DHT22;58269;52.246;21.104;2022-12-24T11:36:32;11.92;62.70
70695;DHT22;58269;52.246;21.104;2022-12-24T11:38:35;11.90;62.73
70695;DHT22;58269;52.246;21.104;2022-12-24T11:40:44;11.90;62.76
70695;DHT22;58269;52.246;21.104;2022-12-24T11:42:46;11.89;62.74
70695;DHT22;58269;52.246;21.104;2022-12-24T11:44:48;11.90;62.75
70695;DHT22;58269;52.246;21.104;2022-12-24T11:46:50;11.86;62.78
70695;DHT22;58269;52.246;21.104;2022-12-24T11:51:25;11.88;62.77
70695;DHT22;58269;52.246;21.104;2022-12-24T11:53:42;11.84;62.74
70695;DHT22;58269;52.246;21.104;2022-12-24T11:55:55;11.84;62.80
70695;DHT22;58269;52.246;21.104;2022-12-24T12:00:08;11.85;62.82
70695;DHT22;58269;52.246;21.104;2022-12-24T12:02:36;11.85;62.81
70695;DHT22;58269;52.246;21.104;2022-12-24T12:04:39;11.88;62.80
70695;DHT22;58269;52.246;21.104;2022-12-24T12:09:03;11.88;62.74
70695;DHT22;58269;52.246;21.104;2022-12-24T12:11:07;11.86;62.75
70695;DHT22;58269;52.246;21.104;2022-12-24T12:13:14;11.85;62.73
70695;DHT22;58269;52.246;21.104;2022-12-24T12:15:23;11.85;62.81
70695;DHT22;58269;52.246;21.104;2022-12-24T12:17:35;11.88;62.84
70695;DHT22;58269;52.246;21.104;2022-12-24T12:19:45;11.86;62.78
70695;DHT22;58269;52.246;21.104;2022-12-24T12:21:46;11.90;62.74
70695;DHT22;58269;52.246;21.104;2022-12-24T12:23:53;11.90;62.65
70695;DHT22;58269;52.246;21.104;2022-12-24T12:26:17;11.90;62.65
70695;DHT22;58269;52.246;21.104;2022-12-24T12:28:04;11.89;62.55
70695;DHT22;58269;52.246;21.104;2022-12-24T12:30:14;11.88;62.63
70695;DHT22;58269;52.246;21.104;2022-12-24T12:34:52;11.92;62.59
70695;DHT22;58269;52.246;21.104;2022-12-24T12:36:56;11.92;62.58
70695;DHT22;58269;52.246;21.104;2022-12-24T12:38:55;11.93;62.55
70695;DHT22;58269;52.246;21.104;2022-12-24T12:43:53;11.95;62.50
70695;DHT22;58269;52.246;21.104;2022-12-24T12:48:57;11.96;62.38
70695;DHT22;58269;52.246;21.104;2022-12-24T12:55:22;11.96;62.27
70695;DHT22;58269;52.246;21.104;2022-12-24T12:57:25;11.96;62.24
70695;DHT22;58269;52.246;21.104;2022-12-24T12:59:40;11.95;62.17
70695;DHT22;58269;52.246;21.104;2022-12-24T13:04:47;11.93;62.23
70695;DHT22;58269;52.246;21.104;2022-12-24T13:13:50;11.92;62.25
70695;DHT22;58269;52.246;21.104;2022-12-24T13:20:34;11.93;62.23
70695;DHT22;58269;52.246;21.104;2022-12-24T13:22:32;11.93;62.22
70695;DHT22;58269;52.246;21.104;2022-12-24T13:24:46;11.93;62.24
70695;DHT22;58269;52.246;21.104;2022-12-24T13:26:36;11.93;62.25
70695;DHT22;58269;52.246;21.104;2022-12-24T13:28:37;11.93;62.28
70695;DHT22;58269;52.246;21.104;2022-12-24T13:30:41;11.93;62.29
70695;DHT22;58269;52.246;21.104;2022-12-24T13:32:53;11.95;62.27
70695;DHT22;58269;52.246;21.104;2022-12-24T13:37:04;11.97;62.23
70695;DHT22;58269;52.246;21.104;2022-12-24T13:39:15;11.92;62.25
70695;DHT22;58269;52.246;21.104;2022-12-24T13:44:33;11.88;62.25
70695;DHT22;58269;52.246;21.104;2022-12-24T13:45:56;11.89;62.27
70695;DHT22;58269;52.246;21.104;2022-12-24T13:50:20;11.88;62.26
70695;DHT22;58269;52.246;21.104;2022-12-24T13:52:27;11.85;62.24
70695;DHT22;58269;52.246;21.104;2022-12-24T13:54:30;11.85;62.25
70695;DHT22;58269;52.246;21.104;2022-12-24T13:56:31;11.84;62.27
70695;DHT22;58269;52.246;21.104;2022-12-24T13:58:39;11.84;62.30
70695;DHT22;58269;52.246;21.104;2022-12-24T14:00:43;11.84;62.30
70695;DHT22;58269;52.246;21.104;2022-12-24T14:05:18;11.82;62.27
70695;DHT22;58269;52.246;21.104;2022-12-24T14:07:19;11.81;62.25